首页
METAR-TAF:

METAR-TAF

机场 :

玛丽埃塔, 喬治亞, 美国

纬度: 33-55N, 经度: 084-31W, 海拔: 326米

当前天气观测

该预报发布于45分钟前的22:56 UTC
风速3节,风向南转西南
温度 21°C
湿度 56%
气压 1019 hPa
能見度: 16.1公里
多云层高于18000英尺
多云层高于25000英尺

METAR: KMGE 142256Z 20003KT 10SM BKN180 BKN250 21/12 A3008 RMK AO2A SLP183 T02090121 $

时间: 19:41 (23:41 UTC)

预报

该预报发布于2小时和41分钟前的21:00 UTC
预报有效从14日的 21点(UTC)到 16日的 03点(UTC)
风速6节,风向多变
能見度: 1501
散云层高于18000英尺
多云层高于25000英尺
成为
从 15日的 17点(UTC)到 15日的 18点(UTC)
风速5节,风向东南
能見度: 9000
散云层高于900英尺
阴天层高于1800英尺
小雨, 轻雾

TAF: KMGE 142100Z 1421/1603 29006KT 9999 SCT180 BKN250 QNH3006INS WND VRB06KT AFT 1501 BECMG 1517/1518 13005KT 9000 -RA BR SCT009 OVC018 QNH2997INS TX24/1421Z TN11/1511Z

超过4000个机场的气象观测和天气预报(METAR&TAF报告)。

可查询的气象台以黄色和红色小点在地图上表示。

将鼠标移到小点上方,可查看气象台名称。

然后点击查看天气观测和预报。

如需切换地图:点击带黑十字的绿色按钮放大地图;点击带横线的绿色按钮缩小地图;或者点击绿色箭头查看邻近地区的地图。


METAR-TAF: